tititudorancea.com
Station Historical Data
Daily Summary for May 8, 2018 Units:  Metric    English   Both
« Previous Day
Next Day »
Daily Weekly Monthly Yearly Custom
  High: Low: Average:
Temperature: -17.8 °C 5.3 °C 11.2 °C
Dew Point: -17.8 °C 4 °C 7.4 °C
Humidity: Humidity % 52 % 79 %
Wind Speed: 0 km/h 0 km/h 2.9 km/h
Wind Gust: 0 km/h - -
Wind:- - SSW
Pressure: 0 hPa 1017.5 hPa -
Precipitation: 0 mm    
Historical Graphs
 
 
Ararat weather Find more about Weather in Ararat, AU


 



 


Tabular Data for May 8, 2018
Time Temperature Dew Point Pressure Wind Wind Speed Wind Gust Humidity Rainfall Rate (Hourly)
-17.8 °C -17.8 °C 0 hPa Calm     Humidity % 0 mm
00:03 13.6 °C 9.4 °C 1017.5 hPa SW 18.5 km/h 18.5 km/h 76 % 0 mm
00:08 13.5 °C 9.7 °C 1017.5 hPa SSW 9.8 km/h 16.7 km/h 78 % 0 mm
00:13 13.3 °C 9.8 °C 1017.5 hPa SSW 7.6 km/h 13 km/h 79 % 0 mm
00:18 13.2 °C 9.8 °C 1017.5 hPa SSW 7.6 km/h 11.1 km/h 80 % 0 mm
00:23 13.1 °C 9.9 °C 1017.5 hPa SSW 7.4 km/h 13 km/h 81 % 0 mm
00:28 13.1 °C 10.1 °C 1017.5 hPa SW 7.9 km/h 13 km/h 82 % 0 mm
00:31 13.1 °C 10.1 °C 1017.5 hPa SW 4.2 km/h 11.1 km/h 82 % 0 mm
00:36 13.1 °C 10.2 °C 1017.5 hPa SW 7.6 km/h 11.1 km/h 83 % 0 mm
00:45 13 °C 10.3 °C 1017.5 hPa SW 18.5 km/h 18.5 km/h 84 % 0 mm
00:50 12.9 °C 10.2 °C 1017.5 hPa SW 4.5 km/h 5.6 km/h 84 % 0 mm
00:55 12.8 °C 10.2 °C 1017.5 hPa SSW 7.7 km/h 9.3 km/h 84 % 0 mm
01:00 12.7 °C 10.2 °C 1017.5 hPa SSW 8.2 km/h 11.1 km/h 85 % 0 mm
01:05 12.6 °C 10.3 °C 1017.8 hPa SSW 7.4 km/h 13 km/h 86 % 0 mm
01:10 12.4 °C 10.2 °C 1017.8 hPa SSW 6.4 km/h 7.4 km/h 86 % 0 mm
01:15 12.3 °C 10.2 °C 1017.8 hPa SW 8.4 km/h 11.3 km/h 87 % 0 mm
01:20 12.1 °C 10 °C 1017.8 hPa SW 9.3 km/h 16.7 km/h 87 % 0 mm
01:25 12.1 °C 10.1 °C 1017.8 hPa SSW 10.9 km/h 18.5 km/h 88 % 0 mm
01:30 12 °C 10.2 °C 1017.8 hPa SSW 7.6 km/h 14.8 km/h 89 % 0 mm
01:35 11.8 °C 10 °C 1017.8 hPa North 12.9 km/h 20.4 km/h 89 % 0 mm
01:40 11.5 °C 9.7 °C 1018.2 hPa North 14.8 km/h 20.4 km/h 89 % 0 mm
01:45 11.3 °C 9.7 °C 1018.2 hPa North 15.4 km/h 20.4 km/h 90 % 0 mm
01:50 11.1 °C 9.7 °C 1018.2 hPa North 14.6 km/h 18.5 km/h 91 % 0 mm
01:55 11.1 °C 9.7 °C 1018.2 hPa North 9.5 km/h 9.5 km/h 91 % 0 mm
02:00 11 °C 9.6 °C 1018.2 hPa North 7.6 km/h 14.5 km/h 91 % 0 mm
02:05 10.9 °C 9.7 °C 1018.2 hPa South 6.8 km/h 11.1 km/h 92 % 0 mm
02:10 10.9 °C 9.7 °C 1018.2 hPa South 5.1 km/h 9.3 km/h 92 % 0 mm
02:15 11 °C 9.7 °C 1018.2 hPa North 1 km/h 3.7 km/h 92 % 0 mm
02:20 10.9 °C 9.7 °C 1018.2 hPa South 2.1 km/h 5.6 km/h 92 % 0 mm
02:25 11 °C 9.9 °C 1018.2 hPa South 0.2 km/h 3.2 km/h 93 % 0 mm
02:30 11 °C 9.9 °C 1018.2 hPa South 1.9 km/h 7.4 km/h 93 % 0 mm
02:35 11 °C 9.9 °C 1018.5 hPa Calm   3.7 km/h 93 % 0 mm
02:40 11 °C 9.9 °C 1018.5 hPa South 3.5 km/h 5.6 km/h 93 % 0 mm
02:45 11 °C 9.9 °C 1018.5 hPa South 4.7 km/h 7.4 km/h 93 % 0 mm
02:50 11 °C 9.9 °C 1018.5 hPa South 4.5 km/h 7.4 km/h 93 % 0 mm
02:55 11 °C 9.9 °C 1018.5 hPa South 7.4 km/h 11.1 km/h 93 % 0 mm
03:00 10.9 °C 9.8 °C 1018.5 hPa South 7.7 km/h 9.7 km/h 93 % 0 mm
03:05 10.9 °C 9.8 °C 1018.5 hPa South 5.3 km/h 7.4 km/h 93 % 0 mm
03:10 10.9 °C 9.8 °C 1018.5 hPa South 5 km/h 8 km/h 93 % 0 mm
03:15 10.8 °C 9.7 °C 1018.5 hPa South 3.5 km/h 7.4 km/h 93 % 0 mm
03:20 10.8 °C 9.7 °C 1018.5 hPa North 3.1 km/h 6.4 km/h 93 % 0 mm
03:25 10.9 °C 9.8 °C 1018.5 hPa South 1.9 km/h 5.6 km/h 93 % 0 mm
03:30 10.9 °C 9.8 °C 1018.5 hPa North 4.3 km/h 9.7 km/h 93 % 0 mm
03:35 10.8 °C 9.7 °C 1018.5 hPa South 6.3 km/h 12.9 km/h 93 % 0 mm
03:40 10.7 °C 9.6 °C 1018.5 hPa South 5.5 km/h 8 km/h 93 % 0 mm
03:45 10.6 °C 9.5 °C 1018.5 hPa North 3.5 km/h 7.4 km/h 93 % 0 mm
03:50 10.5 °C 9.4 °C 1018.5 hPa South 5.5 km/h 7.4 km/h 93 % 0 mm
03:55 10.4 °C 9.3 °C 1018.5 hPa South 2.7 km/h 4.8 km/h 93 % 0 mm
04:00 10.3 °C 9.3 °C 1018.5 hPa South 5.8 km/h 7.4 km/h 93 % 0 mm
04:05 10.3 °C 9.2 °C 1018.8 hPa South 1 km/h 5.6 km/h 93 % 0 mm
04:10 10.2 °C 9.2 °C 1018.8 hPa South 0.3 km/h 3.7 km/h 93 % 0 mm
04:15 10.2 °C 9.2 °C 1018.8 hPa Calm     94 % 0 mm
04:20 10.2 °C 9.3 °C 1018.8 hPa South 0.5 km/h 3.7 km/h 94 % 0 mm
04:25 10.2 °C 9.3 °C 1018.8 hPa South 1.6 km/h 5.6 km/h 94 % 0 mm
04:30 10.2 °C 9.3 °C 1018.8 hPa South 3.4 km/h 5.6 km/h 94 % 0 mm
04:35 10.3 °C 9.3 °C 1018.8 hPa South 2.4 km/h 3.7 km/h 94 % 0 mm
04:40 10.3 °C 9.3 °C 1018.8 hPa South 4 km/h 5.6 km/h 94 % 0 mm
04:45 10.3 °C 9.4 °C 1018.8 hPa South 3.9 km/h 5.6 km/h 94 % 0 mm
04:50 10.3 °C 9.3 °C 1019.2 hPa South 3.4 km/h 5.6 km/h 94 % 0 mm
04:55 10.3 °C 9.3 °C 1019.2 hPa South 3.5 km/h 5.6 km/h 94 % 0 mm
05:00 10.3 °C 9.3 °C 1019.2 hPa South 0.2 km/h 3.7 km/h 94 % 0 mm
05:05 10.3 °C 9.3 °C 1019.2 hPa South 4 km/h 5.6 km/h 94 % 0 mm
05:10 10.3 °C 9.3 °C 1019.2 hPa South 2.1 km/h 3.7 km/h 94 % 0 mm
05:15 10.3 °C 9.4 °C 1019.2 hPa South 0.2 km/h 1.9 km/h 94 % 0 mm
05:20 10.3 °C 9.4 °C 1019.2 hPa South 0.3 km/h 3.7 km/h 94 % 0 mm
05:25 10.3 °C 9.3 °C 1019.2 hPa South 3.7 km/h 5.6 km/h 94 % 0 mm
05:30 10.2 °C 9.2 °C 1019.2 hPa South 1.8 km/h 3.7 km/h 94 % 0 mm
05:35 10.1 °C 9.1 °C 1019.2 hPa South 1.4 km/h 5.6 km/h 94 % 0 mm
05:40 9.9 °C 8.9 °C 1019.2 hPa South 0.3 km/h 3.7 km/h 93 % 0 mm
05:45 9.8 °C 8.7 °C 1019.5 hPa Calm   3.7 km/h 93 % 0 mm
05:50 9.7 °C 8.6 °C 1019.5 hPa South 4 km/h 5.6 km/h 93 % 0 mm
05:55 9.5 °C 8.4 °C 1019.5 hPa South 1.1 km/h 5.6 km/h 93 % 0 mm
06:00 9.4 °C 8.3 °C 1019.5 hPa South 0.5 km/h 1.9 km/h 93 % 0 mm
06:05 9.2 °C 8.2 °C 1019.5 hPa Calm     93 % 0 mm
06:10 9 °C 7.9 °C 1019.5 hPa Calm     93 % 0 mm
06:15 8.8 °C 7.7 °C 1019.5 hPa Calm   1.9 km/h 93 % 0 mm
06:20 8.7 °C 7.8 °C 1019.9 hPa Calm     94 % 0 mm
06:21 8.7 °C 7.8 °C 1019.9 hPa Calm     94 % 0 mm
06:26 8.6 °C 7.7 °C 1019.9 hPa Calm     94 % 0 mm
06:31 8.4 °C 7.4 °C 1019.9 hPa Calm     93 % 0 mm
06:36 8.2 °C 7.2 °C 1019.9 hPa Calm     93 % 0 mm
06:41 8.1 °C 7 °C 1019.9 hPa Calm     93 % 0 mm
06:46 7.8 °C 6.8 °C 1019.9 hPa Calm     93 % 0 mm
06:51 7.7 °C 6.6 °C 1019.9 hPa Calm     93 % 0 mm
06:56 7.6 °C 6.7 °C 1019.9 hPa Calm     94 % 0 mm
07:01 7.6 °C 6.7 °C 1020.2 hPa South 2.4 km/h 3.7 km/h 94 % 0 mm
07:06 7.6 °C 6.7 °C 1020.2 hPa South 1 km/h 3.7 km/h 94 % 0 mm
07:11 7.6 °C 6.7 °C 1020.5 hPa North 3.7 km/h 5.6 km/h 94 % 0 mm
07:16 7.8 °C 7 °C 1020.2 hPa South 3.2 km/h 3.7 km/h 95 % 0 mm
07:21 7.8 °C 7.1 °C 1020.5 hPa South 2.4 km/h 5.6 km/h 95 % 0 mm
07:26 7.8 °C 6.9 °C 1020.5 hPa Calm     94 % 0 mm
07:31 7.6 °C 6.7 °C 1020.5 hPa Calm   1.9 km/h 94 % 0 mm
07:36 7.3 °C 6.3 °C 1020.9 hPa Calm   1.9 km/h 93 % 0 mm
07:41 7.2 °C 6.3 °C 1020.9 hPa Calm     94 % 0 mm
07:46 7.2 °C 6.3 °C 1020.9 hPa Calm     94 % 0 mm
07:51 7.3 °C 6.4 °C 1021.2 hPa Calm     94 % 0 mm
07:56 7.3 °C 6.6 °C 1021.2 hPa Calm     95 % 0 mm
08:01 7.4 °C 6.7 °C 1021.2 hPa Calm     95 % 0 mm
08:06 7.4 °C 6.7 °C 1021.2 hPa Calm     95 % 0 mm
08:11 7.5 °C 6.6 °C 1021.6 hPa Calm     94 % 0 mm
08:16 7.7 °C 6.9 °C 1021.6 hPa Calm     95 % 0 mm
08:21 8.1 °C 7.4 °C 1021.6 hPa Calm     96 % 0 mm
08:26 8.5 °C 7.9 °C 1021.6 hPa Calm     96 % 0 mm
08:31 8.8 °C 8.2 °C 1021.6 hPa Calm     96 % 0 mm
08:36 9.2 °C 8.6 °C 1021.6 hPa Calm     96 % 0 mm
08:41 9.5 °C 8.9 °C 1021.6 hPa Calm     96 % 0 mm
08:46 9.8 °C 9.2 °C 1021.6 hPa Calm     96 % 0 mm
08:51 9.9 °C 9.1 °C 1021.6 hPa South 0.6 km/h   95 % 0 mm
08:56 9.9 °C 9.1 °C 1021.6 hPa South 3.4 km/h 5.6 km/h 95 % 0 mm
09:01 9.8 °C 9.1 °C 1021.6 hPa South 2.3 km/h 5.6 km/h 95 % 0 mm
09:06 10.2 °C 9.4 °C 1021.6 hPa South 1.1 km/h 3.7 km/h 95 % 0 mm
09:11 10.2 °C 9.4 °C 1021.9 hPa South 0.6 km/h 3.7 km/h 95 % 0 mm
09:16 10.2 °C 9.3 °C 1021.9 hPa South 2.7 km/h 5.6 km/h 94 % 0 mm
09:21 10.2 °C 9.2 °C 1021.9 hPa South 1.3 km/h 5.6 km/h 94 % 0 mm
09:26 10.3 °C 9.4 °C 1021.9 hPa South 2.4 km/h 4.8 km/h 94 % 0 mm
09:31 10.4 °C 9.5 °C 1021.9 hPa South 4.3 km/h 5.6 km/h 94 % 0 mm
09:36 10.6 °C 9.6 °C 1021.6 hPa South 4.7 km/h 6.4 km/h 94 % 0 mm
09:41 10.7 °C 9.6 °C 1021.9 hPa South 5.3 km/h 7.4 km/h 93 % 0 mm
09:46 10.9 °C 9.7 °C 1021.9 hPa South 4 km/h 6.4 km/h 92 % 0 mm
09:51 11.1 °C 9.5 °C 1021.9 hPa South 3.4 km/h 5.6 km/h 90 % 0 mm
09:56 11.3 °C 9.8 °C 1021.9 hPa South 4 km/h 5.6 km/h 90 % 0 mm
10:01 11.8 °C 9.8 °C 1021.9 hPa South 4.7 km/h 9.3 km/h 88 % 0 mm
10:06 12.1 °C 9.4 °C 1021.9 hPa South 6.9 km/h 11.1 km/h 84 % 0 mm
10:11 12.1 °C 9.3 °C 1021.9 hPa South 2.1 km/h 5.6 km/h 83 % 0 mm
10:16 12.4 °C 8.8 °C 1021.9 hPa South 7.6 km/h 11.1 km/h 79 % 0 mm
10:21 12.4 °C 8.3 °C 1021.9 hPa South 3.9 km/h 7.4 km/h 76 % 0 mm
10:26 12.6 °C 8.1 °C 1021.9 hPa South 2.9 km/h 3.7 km/h 74 % 0 mm
10:31 13.1 °C 8.2 °C 1021.9 hPa South 7.4 km/h 9.3 km/h 72 % 0 mm
10:36 13 °C 7.7 °C 1021.6 hPa South 8 km/h 9.3 km/h 70 % 0 mm
10:41 12.9 °C 7.8 °C 1021.6 hPa South 3.9 km/h 8 km/h 71 % 0 mm
10:46 13.2 °C 7.8 °C 1021.6 hPa South 8.5 km/h 9.7 km/h 70 % 0 mm
10:52 13.2 °C 7.6 °C 1021.6 hPa South 2.6 km/h 3.7 km/h 69 % 0 mm
10:57 13.4 °C 7.9 °C 1021.6 hPa South 6.3 km/h 6.4 km/h 69 % 0 mm
11:02 13.6 °C 7.6 °C 1021.6 hPa South 4.8 km/h 11.1 km/h 67 % 0 mm
11:07 13.4 °C 7.2 °C 1021.6 hPa South 5.1 km/h 11.1 km/h 66 % 0 mm
11:12 13.4 °C 7.2 °C 1021.6 hPa SSE 8.4 km/h 9.3 km/h 66 % 0 mm
11:17 13.6 °C 7.3 °C 1021.6 hPa SSE 4.2 km/h 9.3 km/h 66 % 0 mm
11:22 13.9 °C 7.4 °C 1021.6 hPa SSE 2.7 km/h 5.6 km/h 65 % 0 mm
11:27 14.1 °C 7.3 °C 1021.6 hPa SSE 1.8 km/h 3.2 km/h 64 % 0 mm
11:32 14.1 °C 7.4 °C 1021.6 hPa SSE 1.1 km/h 6.4 km/h 64 % 0 mm
11:37 14 °C 7.1 °C 1021.6 hPa SSE 3.4 km/h 3.7 km/h 63 % 0 mm
11:42 13.8 °C 7.1 °C 1021.6 hPa SSE 5.5 km/h 7.4 km/h 64 % 0 mm
11:47 13.7 °C 7.1 °C 1021.2 hPa SSE 5.8 km/h 7.4 km/h 64 % 0 mm
11:52 14 °C 7.3 °C 1021.2 hPa SSE 3.9 km/h 7.4 km/h 64 % 0 mm
11:57 14.4 °C 7.7 °C 1021.2 hPa SSE 3.1 km/h 7.4 km/h 64 % 0 mm
12:02 14.4 °C 7.2 °C 1021.2 hPa SSE 8.4 km/h 11.1 km/h 62 % 0 mm
12:07 14.1 °C 7.2 °C 1021.2 hPa SSE 0.8 km/h 3.7 km/h 63 % 0 mm
12:12 14.2 °C 7.3 °C 1021.2 hPa SSE 7.4 km/h 7.4 km/h 63 % 0 mm
12:17 14.2 °C 7.2 °C 1020.9 hPa SSE 8.4 km/h 11.1 km/h 63 % 0 mm
12:22 14.2 °C 7 °C 1020.9 hPa SSE 4.7 km/h 7.4 km/h 62 % 0 mm
12:27 14.4 °C 7 °C 1020.9 hPa SSE 6.1 km/h 7.4 km/h 61 % 0 mm
12:32 14.8 °C 7.4 °C 1020.9 hPa SSE 3.5 km/h 6.4 km/h 61 % 0 mm
12:37 15.2 °C 7.2 °C 1020.9 hPa SSE 7.2 km/h 9.3 km/h 59 % 0 mm
12:42 15.3 °C 7.3 °C 1020.5 hPa SSE 0.5 km/h 1.9 km/h 59 % 0 mm
12:47 15.6 °C 7.1 °C 1020.9 hPa SSE 3.9 km/h 6.4 km/h 57 % 0 mm
12:52 15.3 °C 7.1 °C 1020.5 hPa SSE 4.7 km/h 7.4 km/h 58 % 0 mm
12:57 15.3 °C 7.1 °C 1020.5 hPa SSE 0.6 km/h 3.2 km/h 58 % 0 mm
13:02 15.5 °C 7.3 °C 1020.5 hPa SSE 4.2 km/h 6.4 km/h 58 % 0 mm
13:07 15.6 °C 7.4 °C 1020.5 hPa SSE 8.5 km/h 11.1 km/h 58 % 0 mm
13:12 15.3 °C 7.3 °C 1020.5 hPa SSE 6.3 km/h 11.1 km/h 59 % 0 mm
13:17 15.3 °C 7.3 °C 1020.2 hPa SSE 8.7 km/h 11.1 km/h 59 % 0 mm
13:22 15.4 °C 7.4 °C 1020.2 hPa SSE 1.6 km/h 5.6 km/h 59 % 0 mm
13:27 16.1 °C 7.6 °C 1020.2 hPa SSE 2.1 km/h 5.6 km/h 57 % 0 mm
13:32 16.4 °C 7.3 °C 1020.2 hPa SSE 0.2 km/h 3.2 km/h 55 % 0 mm
13:37 16.1 °C 7.1 °C 1019.9 hPa SSE 1.3 km/h 3.7 km/h 55 % 0 mm
13:42 16.2 °C 7.4 °C 1019.9 hPa SSE 1.1 km/h 3.7 km/h 56 % 0 mm
13:47 16.3 °C 6.9 °C 1019.9 hPa SSE 5.8 km/h 7.4 km/h 54 % 0 mm
13:52 16.1 °C 7 °C 1019.9 hPa SSE 4.5 km/h 7.4 km/h 55 % 0 mm
13:57 16.1 °C 7.3 °C 1019.9 hPa SSE 6.9 km/h 14.5 km/h 56 % 0 mm
14:02 15.8 °C 7 °C 1019.9 hPa SSE 4.5 km/h 7.4 km/h 56 % 0 mm
14:07 15.8 °C 7 °C 1019.9 hPa SSE 0.3 km/h 3.7 km/h 56 % 0 mm
14:12 16 °C 6.9 °C 1019.9 hPa Calm   1.9 km/h 55 % 0 mm
14:17 16.4 °C 7.4 °C 1019.5 hPa SSE 6.4 km/h 7.4 km/h 55 % 0 mm
14:22 16.7 °C 7.3 °C 1019.5 hPa Calm   3.7 km/h 54 % 0 mm
14:27 16.6 °C 7.3 °C 1019.5 hPa SSE 6.4 km/h 11.3 km/h 54 % 0 mm
14:32 16.4 °C 7.1 °C 1019.5 hPa SSE 0.5 km/h 3.7 km/h 54 % 0 mm
14:37 16.7 °C 7.1 °C 1019.9 hPa SSE 3.7 km/h 11.3 km/h 53 % 0 mm
14:42 16.6 °C 6.9 °C 1019.9 hPa SSE 6.1 km/h 9.3 km/h 53 % 0 mm
14:47 16.7 °C 6.8 °C 1019.9 hPa South 6.1 km/h 7.4 km/h 52 % 0 mm
14:52 16.6 °C 6.9 °C 1019.9 hPa SSW 4.7 km/h 5.6 km/h 53 % 0 mm
14:57 16.6 °C 7 °C 1019.9 hPa SSW 3.7 km/h 5.6 km/h 53 % 0 mm
15:02 16.8 °C 6.9 °C 1019.9 hPa SSW 1 km/h 3.7 km/h 52 % 0 mm
15:07 17.2 °C 7.2 °C 1019.5 hPa SSW 5.8 km/h 7.4 km/h 52 % 0 mm
15:12 17.2 °C 7.2 °C 1019.9 hPa SSW 6.3 km/h 9.7 km/h 52 % 0 mm
15:17 17 °C 7.3 °C 1019.5 hPa SSW 3.9 km/h 9.3 km/h 53 % 0 mm
15:22 17 °C 7.3 °C 1019.5 hPa SSW 5.5 km/h 9.3 km/h 53 % 0 mm
15:27 16.8 °C 7.2 °C 1019.5 hPa North 1.8 km/h 3.7 km/h 53 % 0 mm
15:32 16.9 °C 6.9 °C 1019.5 hPa SSW 5.3 km/h 6.4 km/h 52 % 0 mm
15:37 16.8 °C 6.8 °C 1019.5 hPa SSW 5.3 km/h 7.4 km/h 52 % 0 mm
15:42 16.9 °C 6.9 °C 1019.5 hPa SSW 2.3 km/h 4.8 km/h 52 % 0 mm
15:47 16.9 °C 7 °C 1019.5 hPa SSW 6.9 km/h 9.3 km/h 52 % 0 mm
15:52 16.8 °C 7.2 °C 1019.5 hPa SW 2.4 km/h 8 km/h 53 % 0 mm
15:57 16.7 °C 7.1 °C 1019.9 hPa SW 3.5 km/h 5.6 km/h 53 % 0 mm
16:02 16.8 °C 7.2 °C 1019.9 hPa SW 4.8 km/h 6.4 km/h 53 % 0 mm
16:07 16.7 °C 7.1 °C 1019.5 hPa WSW 5.8 km/h 11.1 km/h 53 % 0 mm
16:12 16.3 °C 6.9 °C 1019.9 hPa NNW 7.4 km/h 13 km/h 54 % 0 mm
16:17 15.9 °C 6.9 °C 1019.9 hPa NW 7.2 km/h 9.7 km/h 55 % 0 mm
16:22 15.9 °C 7.2 °C 1019.9 hPa NW 5.3 km/h 5.6 km/h 56 % 0 mm
16:27 16 °C 7.2 °C 1019.9 hPa NW 4.2 km/h 7.4 km/h 56 % 0 mm
16:32 16.1 °C 7.1 °C 1019.9 hPa North 6.1 km/h 9.3 km/h 55 % 0 mm
16:37 16.1 °C 7 °C 1019.9 hPa NNW 7.7 km/h 9.3 km/h 55 % 0 mm
16:42 15.9 °C 7.1 °C 1019.9 hPa NNW 6.6 km/h 9.3 km/h 56 % 0 mm
16:47 15.8 °C 7.3 °C 1019.5 hPa NNW 5.1 km/h 7.4 km/h 57 % 0 mm
16:52 15.7 °C 7.2 °C 1019.5 hPa NNW 2.7 km/h 3.7 km/h 57 % 0 mm
16:57 15.7 °C 7.5 °C 1019.9 hPa NW 5 km/h 7.4 km/h 58 % 0 mm
17:02 15.6 °C 7.4 °C 1019.9 hPa NNW 5 km/h 11.1 km/h 58 % 0 mm
17:07 15.5 °C 7.3 °C 1019.5 hPa North 4.2 km/h 6.4 km/h 58 % 0 mm
17:12 15.4 °C 7.4 °C 1019.5 hPa NNW 1.8 km/h 3.7 km/h 59 % 0 mm
17:17 15.3 °C 7.3 °C 1019.5 hPa NNW 2.7 km/h 5.6 km/h 59 % 0 mm
17:22 15.1 °C 7.4 °C 1019.5 hPa NNW 4 km/h 5.6 km/h 60 % 0 mm
17:27 14.8 °C 7.1 °C 1019.5 hPa NNW 0.8 km/h 3.7 km/h 60 % 0 mm
17:32 14.6 °C 7.2 °C 1019.9 hPa Calm   1.6 km/h 61 % 0 mm
17:37 14.4 °C 7.2 °C 1019.9 hPa Calm     62 % 0 mm
17:42 14.2 °C 7.2 °C 1019.9 hPa Calm     63 % 0 mm
17:47 13.9 °C 7.2 °C 1019.9 hPa Calm     64 % 0 mm
17:52 13.3 °C 7.1 °C 1020.2 hPa Calm     66 % 0 mm
17:57 13 °C 7 °C 1020.2 hPa Calm     67 % 0 mm
18:02 12.7 °C 7.1 °C 1020.2 hPa Calm     69 % 0 mm
18:07 12.4 °C 6.9 °C 1020.2 hPa Calm     69 % 0 mm
18:12 12.2 °C 6.8 °C 1020.5 hPa Calm     70 % 0 mm
18:17 11.9 °C 6.8 °C 1020.5 hPa Calm     71 % 0 mm
18:22 11.6 °C 6.7 °C 1020.5 hPa Calm     72 % 0 mm
18:27 11.3 °C 6.7 °C 1020.5 hPa Calm     73 % 0 mm
18:32 11.1 °C 6.7 °C 1020.5 hPa Calm     74 % 0 mm
18:37 10.9 °C 6.7 °C 1020.5 hPa Calm     75 % 0 mm
18:42 10.7 °C 6.7 °C 1020.5 hPa Calm     76 % 0 mm
18:47 10.7 °C 6.8 °C 1020.5 hPa Calm     77 % 0 mm
18:52 10.5 °C 6.8 °C 1020.5 hPa Calm     78 % 0 mm
18:57 10.3 °C 6.6 °C 1020.5 hPa Calm     78 % 0 mm
19:02 10.2 °C 6.7 °C 1020.9 hPa Calm     79 % 0 mm
19:07 10.1 °C 6.6 °C 1020.9 hPa Calm     79 % 0 mm
19:12 10.1 °C 6.8 °C 1020.9 hPa Calm     80 % 0 mm
19:17 9.9 °C 6.7 °C 1020.9 hPa Calm     80 % 0 mm
19:22 9.8 °C 6.6 °C 1020.9 hPa Calm     80 % 0 mm
19:27 9.7 °C 6.4 °C 1020.9 hPa Calm     80 % 0 mm
19:32 9.4 °C 6.2 °C 1020.9 hPa Calm     80 % 0 mm
19:37 9.4 °C 6.3 °C 1020.9 hPa Calm     81 % 0 mm
19:42 9.2 °C 6.3 °C 1020.9 hPa Calm     82 % 0 mm
19:47 9.2 °C 6.3 °C 1020.9 hPa Calm     82 % 0 mm
19:52 9.1 °C 6.3 °C 1020.9 hPa Calm   1.9 km/h 83 % 0 mm
19:57 8.9 °C 6 °C 1020.5 hPa Calm     82 % 0 mm
20:02 8.6 °C 5.8 °C 1020.9 hPa WNW 6.8 km/h 9.3 km/h 83 % 0 mm
20:07 8.4 °C 6.1 °C 1020.9 hPa North 1.6 km/h 3.7 km/h 85 % 0 mm
20:12 8.3 °C 5.9 °C 1020.9 hPa Calm     85 % 0 mm
20:17 8.1 °C 5.7 °C 1020.9 hPa Calm     85 % 0 mm
20:22 8 °C 5.8 °C 1020.9 hPa Calm   1.9 km/h 86 % 0 mm
20:27 7.9 °C 5.7 °C 1020.9 hPa Calm     86 % 0 mm
20:32 7.9 °C 5.7 °C 1020.9 hPa Calm     86 % 0 mm
20:37 7.8 °C 5.7 °C 1020.9 hPa Calm     87 % 0 mm
20:42 7.7 °C 5.7 °C 1020.9 hPa Calm     87 % 0 mm
20:47 7.6 °C 5.6 °C 1020.9 hPa Calm     87 % 0 mm
20:52 7.5 °C 5.5 °C 1020.9 hPa North 0.3 km/h 1.6 km/h 87 % 0 mm
20:57 7.4 °C 5.6 °C 1020.9 hPa Calm     88 % 0 mm
21:02 7.4 °C 5.6 °C 1020.9 hPa Calm     88 % 0 mm
21:07 7.3 °C 5.4 °C 1021.2 hPa Calm     88 % 0 mm
21:12 7.2 °C 5.6 °C 1021.2 hPa Calm     89 % 0 mm
21:17 7.2 °C 5.5 °C 1021.2 hPa Calm     89 % 0 mm
21:22 7.1 °C 5.4 °C 1021.2 hPa Calm     89 % 0 mm
21:27 7.1 °C 5.4 °C 1021.2 hPa Calm     89 % 0 mm
21:32 7 °C 5.3 °C 1021.2 hPa Calm     89 % 0 mm
21:33 7 °C 5.3 °C 1021.2 hPa Calm     89 % 0 mm
21:38 6.8 °C 5.1 °C 1021.2 hPa Calm     89 % 0 mm
21:43 6.8 °C 5.3 °C 1021.2 hPa Calm     90 % 0 mm
21:49 6.8 °C 5.3 °C 1021.2 hPa Calm     90 % 0 mm
21:57 6.6 °C 4.9 °C 1020.9 hPa Calm     89 % 0 mm
22:02 6.4 °C 4.9 °C 1021.2 hPa Calm     90 % 0 mm
22:06 6.4 °C 4.9 °C 1020.9 hPa Calm     90 % 0 mm
22:11 6.3 °C 4.8 °C 1020.9 hPa Calm     90 % 0 mm
22:16 6.2 °C 4.7 °C 1020.9 hPa Calm     90 % 0 mm
22:19 6.2 °C 4.7 °C 1020.9 hPa Calm     90 % 0 mm
22:24 6.1 °C 4.6 °C 1020.9 hPa Calm     90 % 0 mm
22:29 6 °C 4.5 °C 1020.9 hPa Calm     90 % 0 mm
22:34 5.8 °C 4.3 °C 1020.9 hPa Calm     90 % 0 mm
22:39 5.7 °C 4.2 °C 1020.9 hPa Calm     90 % 0 mm
22:44 5.7 °C 4.4 °C 1020.9 hPa Calm     91 % 0 mm
22:49 5.7 °C 4.4 °C 1020.5 hPa Calm     91 % 0 mm
22:54 5.7 °C 4.3 °C 1020.5 hPa Calm     91 % 0 mm
22:59 5.6 °C 4.2 °C 1020.5 hPa Calm     91 % 0 mm
23:04 5.5 °C 4.2 °C 1020.5 hPa Calm     91 % 0 mm
23:09 5.4 °C 4.1 °C 1020.2 hPa Calm     91 % 0 mm
23:14 5.3 °C 4 °C 1020.2 hPa Calm     91 % 0 mm
23:19 5.3 °C 4.1 °C 1020.2 hPa Calm     92 % 0 mm
23:24 5.4 °C 4.2 °C 1020.2 hPa Calm     92 % 0 mm
23:29 5.5 °C 4.3 °C 1020.2 hPa Calm     92 % 0 mm
23:34 5.6 °C 4.3 °C 1020.2 hPa Calm     92 % 0 mm
23:39 5.5 °C 4.3 °C 1020.2 hPa Calm     92 % 0 mm
23:44 5.5 °C 4.3 °C 1020.2 hPa Calm     92 % 0 mm
23:49 5.5 °C 4.3 °C 1020.2 hPa Calm     92 % 0 mm
23:54 5.5 °C 4.3 °C 1020.2 hPa Calm     92 % 0 mm
23:59 5.5 °C 4.3 °C 1020.2 hPa Calm     92 % 0 mm
Ararat Weather
Compliments of Weather Underground - 2.5 mb
Click here to send mail.


ABOUT

Live weather data from Ararat, Victoria, Australia, 3377
Data uploaded from Cumulus every 5 minutes to Weather Underground.
This site then downloads the raw data for formatting and display.
Metric and imperial data can be displayed. Graphs and historical data available.
Includes Sun and Moon times and rain image live from BOM.

Check out Ararat Weather on Facebook, Twitter and Google +

Help support ongoing costs by checking out the ads





Follow @AraratWeather